KLM787 TNCM-TTPP
Flight info
| Callsign | KLM787 |
|---|---|
| Flight time | 1h 5m |
| Altitude | 38000 |
| Route | MODOR2 ZPATA |
| Aircraft | A332/H-SDE3GHIJ2J3J5M1RVWXY/LB2D1 |
Departure
| Time | 2026-05-09 08:18 |
|---|---|
| Airport | Princess Juliana International Airport (TNCM) |
Arrival
| Time | 2026-05-09 09:23 |
|---|---|
| Airport | Piarco International Airport (TTPP) |
| Time | Latitude | Longitude | Altitude | Speed | Heading |
|---|---|---|---|---|---|
| 2026-05-09 06:44 | 18.04340 | -63.11296 | 32 ft | 0 kts | 351° |
| 2026-05-09 06:51 | 18.04339 | -63.11296 | 30 ft | 0 kts | 351° |
| 2026-05-09 07:04 | 18.04338 | -63.11296 | 32 ft | 0 kts | 351° |
| 2026-05-09 07:17 | 18.04337 | -63.11296 | 32 ft | 0 kts | 351° |
| 2026-05-09 07:31 | 18.04336 | -63.11296 | 32 ft | 0 kts | 351° |
| 2026-05-09 07:43 | 18.04336 | -63.11295 | 32 ft | 0 kts | 351° |
| 2026-05-09 07:45 | 18.04335 | -63.11295 | 32 ft | 0 kts | 351° |
| 2026-05-09 07:59 | 18.04334 | -63.11295 | 32 ft | 0 kts | 351° |
| 2026-05-09 08:11 | 18.04317 | -63.11291 | 36 ft | 4 kts | 346° |
| 2026-05-09 08:11 | 18.04293 | -63.11290 | 27 ft | 4 kts | 26° |
| 2026-05-09 08:11 | 18.04268 | -63.11299 | 31 ft | 4 kts | 14° |
| 2026-05-09 08:12 | 18.04219 | -63.11318 | 30 ft | 2 kts | 12° |
| 2026-05-09 08:12 | 18.04213 | -63.11319 | 31 ft | 1 kts | 11° |
| 2026-05-09 08:14 | 18.04221 | -63.11321 | 30 ft | 2 kts | 350° |
| 2026-05-09 08:14 | 18.04233 | -63.11336 | 31 ft | 5 kts | 301° |
| 2026-05-09 08:15 | 18.04234 | -63.11393 | 32 ft | 11 kts | 263° |
| 2026-05-09 08:15 | 18.04208 | -63.11487 | 32 ft | 16 kts | 239° |
| 2026-05-09 08:15 | 18.04133 | -63.11585 | 32 ft | 18 kts | 225° |
| 2026-05-09 08:15 | 18.04068 | -63.11688 | 32 ft | 17 kts | 250° |
| 2026-05-09 08:16 | 18.04046 | -63.11815 | 31 ft | 18 kts | 260° |
| 2026-05-09 08:16 | 18.04006 | -63.11932 | 32 ft | 17 kts | 237° |
| 2026-05-09 08:16 | 18.03949 | -63.11951 | 31 ft | 5 kts | 133° |
| 2026-05-09 08:16 | 18.03945 | -63.11920 | 31 ft | 4 kts | 81° |
| 2026-05-09 08:17 | 18.03946 | -63.11913 | 31 ft | 0 kts | 81° |
| 2026-05-09 08:17 | 18.03958 | -63.11836 | 31 ft | 39 kts | 81° |
| 2026-05-09 08:17 | 18.04038 | -63.11274 | 31 ft | 114 kts | 81° |
| 2026-05-09 08:17 | 18.04185 | -63.10230 | 180 ft | 165 kts | 82° |
| 2026-05-09 08:18 | 18.04353 | -63.08990 | 990 ft | 177 kts | 83° |
| 2026-05-09 08:18 | 18.04114 | -63.07701 | 1701 ft | 191 kts | 121° |
| 2026-05-09 08:18 | 18.02931 | -63.06931 | 1918 ft | 223 kts | 171° |
| 2026-05-09 08:18 | 18.01337 | -63.07087 | 2358 ft | 246 kts | 188° |
| 2026-05-09 08:19 | 17.99614 | -63.07439 | 2877 ft | 258 kts | 188° |
| 2026-05-09 08:19 | 17.97833 | -63.07730 | 3524 ft | 264 kts | 184° |
| 2026-05-09 08:19 | 17.95990 | -63.07896 | 4236 ft | 268 kts | 181° |
| 2026-05-09 08:19 | 17.94106 | -63.07990 | 5024 ft | 272 kts | 179° |
| 2026-05-09 08:20 | 17.92192 | -63.08058 | 5776 ft | 277 kts | 179° |
| 2026-05-09 08:20 | 17.90243 | -63.08114 | 6549 ft | 281 kts | 179° |
| 2026-05-09 08:20 | 17.88939 | -63.08149 | 7043 ft | 284 kts | 179° |
| 2026-05-09 08:20 | 17.86949 | -63.08105 | 7776 ft | 288 kts | 167° |
| 2026-05-09 08:21 | 17.84581 | -63.06887 | 8772 ft | 291 kts | 144° |
| 2026-05-09 08:21 | 17.83441 | -63.06066 | 9275 ft | 295 kts | 143° |
| 2026-05-09 08:21 | 17.81742 | -63.04865 | 10002 ft | 301 kts | 145° |
| 2026-05-09 08:21 | 17.79938 | -63.03646 | 10460 ft | 317 kts | 146° |
| 2026-05-09 08:22 | 17.78000 | -63.02385 | 10766 ft | 337 kts | 147° |
| 2026-05-09 08:22 | 17.75935 | -63.01074 | 11045 ft | 356 kts | 147° |
| 2026-05-09 08:22 | 17.73768 | -62.99715 | 11459 ft | 367 kts | 148° |
| 2026-05-09 08:22 | 17.71554 | -62.98336 | 12058 ft | 372 kts | 148° |
| 2026-05-09 08:23 | 17.69316 | -62.96945 | 12679 ft | 376 kts | 147° |
| 2026-05-09 08:23 | 17.67057 | -62.95543 | 13315 ft | 379 kts | 148° |
| 2026-05-09 08:23 | 17.64784 | -62.94133 | 13935 ft | 381 kts | 147° |
| 2026-05-09 08:23 | 17.62476 | -62.92702 | 14320 ft | 390 kts | 147° |
| 2026-05-09 08:24 | 17.60135 | -62.91250 | 14523 ft | 402 kts | 148° |
| 2026-05-09 08:24 | 17.57689 | -62.89735 | 14762 ft | 412 kts | 148° |
| 2026-05-09 08:24 | 17.55208 | -62.88199 | 15182 ft | 415 kts | 148° |
| 2026-05-09 08:24 | 17.52711 | -62.86655 | 15596 ft | 419 kts | 148° |
| 2026-05-09 08:25 | 17.50190 | -62.85095 | 16047 ft | 421 kts | 148° |
| 2026-05-09 08:25 | 17.47587 | -62.83656 | 16461 ft | 426 kts | 156° |
| 2026-05-09 08:25 | 17.44722 | -62.82807 | 16865 ft | 431 kts | 167° |
| 2026-05-09 08:25 | 17.41760 | -62.82236 | 17253 ft | 434 kts | 169° |
| 2026-05-09 08:26 | 17.38802 | -62.81711 | 17665 ft | 437 kts | 169° |
| 2026-05-09 08:26 | 17.35789 | -62.81175 | 18091 ft | 439 kts | 169° |
| 2026-05-09 08:26 | 17.32767 | -62.80631 | 18434 ft | 443 kts | 169° |
| 2026-05-09 08:26 | 17.29722 | -62.80080 | 18776 ft | 445 kts | 168° |
| 2026-05-09 08:27 | 17.26663 | -62.79524 | 19125 ft | 447 kts | 168° |
| 2026-05-09 08:27 | 17.23579 | -62.78963 | 19459 ft | 449 kts | 168° |
| 2026-05-09 08:27 | 17.20492 | -62.78399 | 19804 ft | 451 kts | 168° |
| 2026-05-09 08:27 | 17.17396 | -62.77834 | 20128 ft | 453 kts | 168° |
| 2026-05-09 08:28 | 17.14321 | -62.77273 | 20462 ft | 455 kts | 168° |
| 2026-05-09 08:28 | 17.11185 | -62.76701 | 20775 ft | 458 kts | 168° |
| 2026-05-09 08:28 | 17.08042 | -62.76127 | 21106 ft | 460 kts | 167° |
| 2026-05-09 08:28 | 17.04878 | -62.75550 | 21453 ft | 462 kts | 167° |
| 2026-05-09 08:29 | 17.01698 | -62.74970 | 21795 ft | 464 kts | 167° |
| 2026-05-09 08:29 | 16.98509 | -62.74388 | 22129 ft | 466 kts | 167° |
| 2026-05-09 08:29 | 16.95304 | -62.73804 | 22462 ft | 468 kts | 167° |
| 2026-05-09 08:29 | 16.92124 | -62.73224 | 22806 ft | 470 kts | 167° |
| 2026-05-09 08:30 | 16.88856 | -62.72629 | 23142 ft | 472 kts | 167° |
| 2026-05-09 08:30 | 16.85653 | -62.72046 | 23464 ft | 474 kts | 167° |
| 2026-05-09 08:30 | 16.82393 | -62.71452 | 23754 ft | 476 kts | 167° |
| 2026-05-09 08:30 | 16.79116 | -62.70856 | 24005 ft | 479 kts | 167° |
| 2026-05-09 08:31 | 16.75816 | -62.70256 | 24266 ft | 482 kts | 167° |
| 2026-05-09 08:31 | 16.72499 | -62.69653 | 24532 ft | 484 kts | 167° |
| 2026-05-09 08:31 | 16.69163 | -62.69046 | 24792 ft | 487 kts | 167° |
| 2026-05-09 08:31 | 16.65814 | -62.68438 | 25064 ft | 489 kts | 167° |
| 2026-05-09 08:32 | 16.62493 | -62.67835 | 25315 ft | 491 kts | 166° |
| 2026-05-09 08:32 | 16.59114 | -62.67221 | 25577 ft | 494 kts | 166° |
| 2026-05-09 08:32 | 16.52306 | -62.65986 | 26086 ft | 498 kts | 166° |
| 2026-05-09 08:33 | 16.48872 | -62.65363 | 26340 ft | 501 kts | 166° |
| 2026-05-09 08:33 | 16.45433 | -62.64739 | 26563 ft | 504 kts | 166° |
| 2026-05-09 08:33 | 16.41968 | -62.64111 | 26810 ft | 506 kts | 166° |
| 2026-05-09 08:33 | 16.38485 | -62.63480 | 27058 ft | 508 kts | 166° |
| 2026-05-09 08:34 | 16.34983 | -62.62846 | 27303 ft | 510 kts | 166° |
| 2026-05-09 08:34 | 16.31517 | -62.62218 | 27526 ft | 513 kts | 166° |
| 2026-05-09 08:34 | 16.27989 | -62.61580 | 27760 ft | 515 kts | 166° |
| 2026-05-09 08:34 | 16.24452 | -62.60940 | 27993 ft | 517 kts | 166° |
| 2026-05-09 08:35 | 16.20893 | -62.60297 | 28221 ft | 519 kts | 166° |
| 2026-05-09 08:35 | 16.17325 | -62.59652 | 28431 ft | 521 kts | 166° |
| 2026-05-09 08:35 | 16.13741 | -62.59004 | 28658 ft | 523 kts | 166° |
| 2026-05-09 08:35 | 16.10148 | -62.58355 | 28866 ft | 525 kts | 166° |
| 2026-05-09 08:36 | 16.06532 | -62.57702 | 29070 ft | 527 kts | 166° |
| 2026-05-09 08:36 | 16.02912 | -62.57049 | 29267 ft | 529 kts | 166° |
| 2026-05-09 08:36 | 15.99269 | -62.56391 | 29467 ft | 531 kts | 166° |
| 2026-05-09 08:36 | 15.95659 | -62.55740 | 29655 ft | 533 kts | 166° |
| 2026-05-09 08:37 | 15.91999 | -62.55080 | 29831 ft | 535 kts | 166° |
| 2026-05-09 08:37 | 15.88317 | -62.54417 | 30043 ft | 536 kts | 166° |
| 2026-05-09 08:37 | 15.84636 | -62.53754 | 30225 ft | 537 kts | 166° |
| 2026-05-09 08:37 | 15.80937 | -62.53088 | 30387 ft | 539 kts | 166° |
| 2026-05-09 08:38 | 15.77247 | -62.52423 | 30607 ft | 539 kts | 166° |
| 2026-05-09 08:38 | 15.73545 | -62.51757 | 30824 ft | 539 kts | 166° |
| 2026-05-09 08:38 | 15.69846 | -62.51092 | 31057 ft | 539 kts | 166° |
| 2026-05-09 08:38 | 15.66189 | -62.50435 | 31291 ft | 539 kts | 166° |
| 2026-05-09 08:39 | 15.62498 | -62.49771 | 31524 ft | 539 kts | 166° |
| 2026-05-09 08:39 | 15.58797 | -62.49106 | 31769 ft | 539 kts | 166° |
| 2026-05-09 08:39 | 15.55098 | -62.48442 | 32019 ft | 538 kts | 166° |
| 2026-05-09 08:39 | 15.51403 | -62.47778 | 32235 ft | 537 kts | 167° |
| 2026-05-09 08:40 | 15.47725 | -62.47118 | 32546 ft | 535 kts | 167° |
| 2026-05-09 08:40 | 15.44063 | -62.46461 | 32815 ft | 534 kts | 167° |
| 2026-05-09 08:40 | 15.40400 | -62.45804 | 33056 ft | 534 kts | 167° |
| 2026-05-09 08:40 | 15.36733 | -62.45146 | 33296 ft | 534 kts | 167° |
| 2026-05-09 08:41 | 15.33114 | -62.44497 | 33559 ft | 533 kts | 167° |
| 2026-05-09 08:41 | 15.29460 | -62.43843 | 33824 ft | 533 kts | 167° |
| 2026-05-09 08:41 | 15.25794 | -62.43186 | 34066 ft | 533 kts | 167° |
| 2026-05-09 08:41 | 15.22149 | -62.42533 | 34309 ft | 531 kts | 167° |
| 2026-05-09 08:42 | 15.18511 | -62.41882 | 34560 ft | 528 kts | 167° |
| 2026-05-09 08:42 | 15.14899 | -62.41236 | 34875 ft | 525 kts | 167° |
| 2026-05-09 08:42 | 15.11299 | -62.40592 | 35120 ft | 524 kts | 167° |
| 2026-05-09 08:42 | 15.07706 | -62.39950 | 35343 ft | 524 kts | 168° |
| 2026-05-09 08:43 | 15.04112 | -62.39307 | 35576 ft | 523 kts | 168° |
| 2026-05-09 08:43 | 15.00574 | -62.38675 | 35804 ft | 522 kts | 168° |
| 2026-05-09 08:43 | 14.96993 | -62.38035 | 36036 ft | 521 kts | 168° |
| 2026-05-09 08:43 | 14.93426 | -62.37398 | 36265 ft | 520 kts | 168° |
| 2026-05-09 08:44 | 14.89860 | -62.36761 | 36497 ft | 519 kts | 168° |
| 2026-05-09 08:44 | 14.86300 | -62.36126 | 36745 ft | 516 kts | 169° |
| 2026-05-09 08:44 | 14.82771 | -62.35496 | 37086 ft | 512 kts | 169° |
| 2026-05-09 08:44 | 14.79263 | -62.34871 | 37331 ft | 510 kts | 169° |
| 2026-05-09 08:45 | 14.75800 | -62.34253 | 37540 ft | 510 kts | 169° |
| 2026-05-09 08:45 | 14.72307 | -62.33630 | 37736 ft | 509 kts | 169° |
| 2026-05-09 08:45 | 14.68817 | -62.33008 | 37965 ft | 508 kts | 170° |
| 2026-05-09 08:46 | 14.61833 | -62.31765 | 37964 ft | 508 kts | 170° |
| 2026-05-09 08:46 | 14.54866 | -62.30525 | 37957 ft | 508 kts | 170° |
| 2026-05-09 08:47 | 14.47940 | -62.29293 | 37957 ft | 507 kts | 170° |
| 2026-05-09 08:47 | 14.40991 | -62.28058 | 37958 ft | 506 kts | 170° |
| 2026-05-09 08:48 | 14.34034 | -62.26822 | 37954 ft | 507 kts | 170° |
| 2026-05-09 08:48 | 14.27087 | -62.25589 | 37958 ft | 507 kts | 170° |
| 2026-05-09 08:49 | 14.20127 | -62.24354 | 37954 ft | 506 kts | 171° |
| 2026-05-09 08:49 | 14.13228 | -62.23131 | 37956 ft | 505 kts | 171° |
| 2026-05-09 08:50 | 14.06298 | -62.21903 | 37963 ft | 504 kts | 171° |
| 2026-05-09 08:50 | 13.99380 | -62.20678 | 37961 ft | 504 kts | 171° |
| 2026-05-09 08:51 | 13.92512 | -62.19462 | 37958 ft | 504 kts | 171° |
| 2026-05-09 08:51 | 13.85603 | -62.18240 | 37955 ft | 502 kts | 172° |
| 2026-05-09 08:52 | 13.78710 | -62.17022 | 37955 ft | 501 kts | 172° |
| 2026-05-09 08:52 | 13.71829 | -62.15807 | 37948 ft | 501 kts | 172° |
| 2026-05-09 08:53 | 13.64950 | -62.14592 | 37952 ft | 501 kts | 172° |
| 2026-05-09 08:53 | 13.58108 | -62.13385 | 37946 ft | 501 kts | 172° |
| 2026-05-09 08:54 | 13.51228 | -62.12171 | 37946 ft | 500 kts | 172° |
| 2026-05-09 08:54 | 13.44370 | -62.10963 | 37948 ft | 499 kts | 172° |
| 2026-05-09 08:55 | 13.37561 | -62.09764 | 37946 ft | 499 kts | 172° |
| 2026-05-09 08:55 | 13.30711 | -62.08558 | 37944 ft | 499 kts | 172° |
| 2026-05-09 08:56 | 13.23851 | -62.07351 | 37941 ft | 499 kts | 173° |
| 2026-05-09 08:56 | 13.17017 | -62.06149 | 37943 ft | 498 kts | 173° |
| 2026-05-09 08:57 | 13.10228 | -62.04956 | 37942 ft | 497 kts | 173° |
| 2026-05-09 08:57 | 13.03400 | -62.03757 | 37947 ft | 497 kts | 173° |
| 2026-05-09 08:58 | 12.96569 | -62.02558 | 37943 ft | 497 kts | 173° |
| 2026-05-09 08:58 | 12.89741 | -62.01360 | 37941 ft | 497 kts | 173° |
| 2026-05-09 08:59 | 12.82909 | -62.00163 | 37942 ft | 497 kts | 173° |
| 2026-05-09 08:59 | 12.76129 | -61.98975 | 37940 ft | 497 kts | 173° |
| 2026-05-09 09:00 | 12.69299 | -61.97778 | 37937 ft | 497 kts | 173° |
| 2026-05-09 09:00 | 12.62475 | -61.96584 | 37940 ft | 497 kts | 173° |
| 2026-05-09 09:01 | 12.55655 | -61.95390 | 37941 ft | 497 kts | 173° |
| 2026-05-09 09:01 | 12.48866 | -61.94204 | 37940 ft | 496 kts | 173° |
| 2026-05-09 09:02 | 12.42048 | -61.93012 | 37939 ft | 496 kts | 173° |
| 2026-05-09 09:02 | 12.35239 | -61.91823 | 37942 ft | 495 kts | 174° |
| 2026-05-09 09:03 | 12.28455 | -61.90638 | 37941 ft | 493 kts | 174° |
| 2026-05-09 09:03 | 12.21747 | -61.89468 | 37941 ft | 491 kts | 174° |
| 2026-05-09 09:04 | 12.15002 | -61.88291 | 37935 ft | 490 kts | 174° |
| 2026-05-09 09:04 | 12.11635 | -61.87704 | 37610 ft | 488 kts | 174° |
| 2026-05-09 09:04 | 12.08278 | -61.87119 | 36882 ft | 490 kts | 174° |
| 2026-05-09 09:04 | 12.04950 | -61.86540 | 36136 ft | 492 kts | 174° |
| 2026-05-09 09:05 | 12.01554 | -61.85950 | 35391 ft | 495 kts | 174° |
| 2026-05-09 09:05 | 11.98152 | -61.85357 | 34663 ft | 497 kts | 174° |
| 2026-05-09 09:05 | 11.94731 | -61.84762 | 33922 ft | 499 kts | 173° |
| 2026-05-09 09:05 | 11.91304 | -61.84165 | 33178 ft | 499 kts | 174° |
| 2026-05-09 09:06 | 11.87881 | -61.83568 | 32414 ft | 499 kts | 174° |
| 2026-05-09 09:06 | 11.84454 | -61.82972 | 31594 ft | 500 kts | 174° |
| 2026-05-09 09:06 | 11.81063 | -61.82382 | 30770 ft | 501 kts | 174° |
| 2026-05-09 09:06 | 11.77616 | -61.81783 | 29933 ft | 503 kts | 174° |
| 2026-05-09 09:07 | 11.74163 | -61.81183 | 29006 ft | 503 kts | 174° |
| 2026-05-09 09:07 | 11.70716 | -61.80584 | 28192 ft | 501 kts | 174° |
| 2026-05-09 09:07 | 11.67283 | -61.79987 | 27442 ft | 498 kts | 174° |
| 2026-05-09 09:07 | 11.63876 | -61.79394 | 26740 ft | 494 kts | 173° |
| 2026-05-09 09:08 | 11.60503 | -61.78808 | 26073 ft | 490 kts | 174° |
| 2026-05-09 09:08 | 11.58283 | -61.78421 | 25696 ft | 485 kts | 173° |
| 2026-05-09 09:08 | 11.54969 | -61.77846 | 25055 ft | 481 kts | 173° |
| 2026-05-09 09:08 | 11.50621 | -61.77092 | 24159 ft | 477 kts | 173° |
| 2026-05-09 09:09 | 11.47395 | -61.76532 | 23507 ft | 474 kts | 173° |
| 2026-05-09 09:09 | 11.45232 | -61.76157 | 22989 ft | 472 kts | 172° |
| 2026-05-09 09:09 | 11.42002 | -61.75597 | 22247 ft | 469 kts | 172° |
| 2026-05-09 09:09 | 11.38797 | -61.75042 | 21554 ft | 464 kts | 172° |
| 2026-05-09 09:10 | 11.35614 | -61.74490 | 20853 ft | 461 kts | 172° |
| 2026-05-09 09:10 | 11.32463 | -61.73944 | 20137 ft | 458 kts | 172° |
| 2026-05-09 09:10 | 11.29321 | -61.73400 | 19439 ft | 455 kts | 171° |
| 2026-05-09 09:10 | 11.26206 | -61.72860 | 18762 ft | 452 kts | 171° |
| 2026-05-09 09:11 | 11.23177 | -61.72336 | 18143 ft | 448 kts | 170° |
| 2026-05-09 09:11 | 11.20103 | -61.71804 | 17338 ft | 446 kts | 170° |
| 2026-05-09 09:11 | 11.17042 | -61.71274 | 16608 ft | 443 kts | 170° |
| 2026-05-09 09:11 | 11.14049 | -61.70756 | 16218 ft | 425 kts | 170° |
| 2026-05-09 09:12 | 11.11214 | -61.70265 | 15531 ft | 405 kts | 170° |
| 2026-05-09 09:12 | 11.08450 | -61.69787 | 14267 ft | 402 kts | 169° |
| 2026-05-09 09:12 | 11.05681 | -61.69307 | 12819 ft | 404 kts | 169° |
| 2026-05-09 09:12 | 11.02916 | -61.68829 | 11665 ft | 397 kts | 169° |
| 2026-05-09 09:13 | 11.00292 | -61.68376 | 11038 ft | 377 kts | 169° |
| 2026-05-09 09:13 | 10.97753 | -61.67938 | 10639 ft | 352 kts | 169° |
| 2026-05-09 09:13 | 10.95464 | -61.67543 | 10542 ft | 323 kts | 169° |
| 2026-05-09 09:13 | 10.93331 | -61.67176 | 10438 ft | 299 kts | 169° |
| 2026-05-09 09:14 | 10.91341 | -61.66832 | 10301 ft | 281 kts | 168° |
| 2026-05-09 09:14 | 10.89418 | -61.66498 | 10200 ft | 282 kts | 169° |
| 2026-05-09 09:14 | 10.87480 | -61.66162 | 10068 ft | 283 kts | 168° |
| 2026-05-09 09:14 | 10.85543 | -61.65826 | 9860 ft | 282 kts | 168° |
| 2026-05-09 09:15 | 10.83601 | -61.65490 | 9489 ft | 283 kts | 169° |
| 2026-05-09 09:15 | 10.81658 | -61.65154 | 9165 ft | 283 kts | 168° |
| 2026-05-09 09:15 | 10.79740 | -61.64822 | 8861 ft | 282 kts | 169° |
| 2026-05-09 09:15 | 10.77802 | -61.64488 | 8548 ft | 282 kts | 168° |
| 2026-05-09 09:16 | 10.75865 | -61.64154 | 8230 ft | 282 kts | 168° |
| 2026-05-09 09:16 | 10.71927 | -61.63473 | 7600 ft | 290 kts | 168° |
| 2026-05-09 09:16 | 10.69939 | -61.63149 | 7262 ft | 288 kts | 171° |
| 2026-05-09 09:17 | 10.67965 | -61.62826 | 6955 ft | 286 kts | 167° |
| 2026-05-09 09:17 | 10.66080 | -61.62300 | 6562 ft | 285 kts | 158° |
| 2026-05-09 09:17 | 10.64305 | -61.61438 | 6279 ft | 279 kts | 147° |
| 2026-05-09 09:17 | 10.62754 | -61.60293 | 5962 ft | 274 kts | 137° |
| 2026-05-09 09:18 | 10.61458 | -61.58895 | 5654 ft | 269 kts | 126° |
| 2026-05-09 09:18 | 10.60469 | -61.57340 | 5491 ft | 252 kts | 116° |
| 2026-05-09 09:18 | 10.59805 | -61.55780 | 5231 ft | 231 kts | 107° |
| 2026-05-09 09:18 | 10.59496 | -61.54246 | 4748 ft | 216 kts | 94° |
| 2026-05-09 09:19 | 10.59475 | -61.52744 | 4207 ft | 210 kts | 89° |
| 2026-05-09 09:19 | 10.59490 | -61.51264 | 3860 ft | 209 kts | 89° |
| 2026-05-09 09:19 | 10.59516 | -61.49808 | 3478 ft | 208 kts | 88° |
| 2026-05-09 09:19 | 10.59566 | -61.48338 | 3002 ft | 207 kts | 88° |
| 2026-05-09 09:20 | 10.59598 | -61.46881 | 2571 ft | 203 kts | 89° |
| 2026-05-09 09:20 | 10.59574 | -61.45482 | 2219 ft | 194 kts | 92° |
| 2026-05-09 09:20 | 10.59534 | -61.44129 | 1933 ft | 187 kts | 92° |
| 2026-05-09 09:20 | 10.59518 | -61.42815 | 1505 ft | 184 kts | 90° |
| 2026-05-09 09:21 | 10.59535 | -61.41549 | 1264 ft | 173 kts | 88° |
| 2026-05-09 09:21 | 10.59545 | -61.40345 | 1003 ft | 165 kts | 89° |
| 2026-05-09 09:21 | 10.59521 | -61.39235 | 847 ft | 151 kts | 89° |
| 2026-05-09 09:21 | 10.59532 | -61.38186 | 632 ft | 145 kts | 89° |
| 2026-05-09 09:22 | 10.59536 | -61.37194 | 430 ft | 136 kts | 90° |
| 2026-05-09 09:22 | 10.59534 | -61.36261 | 251 ft | 131 kts | 91° |
| 2026-05-09 09:22 | 10.59535 | -61.35338 | 85 ft | 133 kts | 90° |
| 2026-05-09 09:22 | 10.59535 | -61.34441 | 24 ft | 113 kts | 90° |
| 2026-05-09 09:23 | 10.59539 | -61.33743 | 23 ft | 80 kts | 89° |
| 2026-05-09 09:23 | 10.59539 | -61.33318 | 21 ft | 45 kts | 90° |
| 2026-05-09 09:23 | 10.59546 | -61.33024 | 19 ft | 34 kts | 75° |
| 2026-05-09 09:23 | 10.59698 | -61.32981 | 23 ft | 17 kts | 308° |
| 2026-05-09 09:24 | 10.59711 | -61.33124 | 19 ft | 26 kts | 270° |
| 2026-05-09 09:24 | 10.59711 | -61.33325 | 19 ft | 28 kts | 270° |
| 2026-05-09 09:24 | 10.59711 | -61.33507 | 19 ft | 26 kts | 270° |
| 2026-05-09 09:24 | 10.59710 | -61.33684 | 21 ft | 19 kts | 269° |
| 2026-05-09 09:25 | 10.59737 | -61.33735 | 22 ft | 9 kts | 344° |
| 2026-05-09 09:25 | 10.59822 | -61.33740 | 21 ft | 13 kts | 359° |
| 2026-05-09 09:25 | 10.59913 | -61.33757 | 24 ft | 13 kts | 320° |
| 2026-05-09 09:25 | 10.59952 | -61.33809 | 21 ft | 3 kts | 307° |
| 2026-05-09 09:26 | 10.59955 | -61.33813 | 22 ft | 0 kts | 307° |